UKOH/KHE METAR and TAF weather

Enter ICAO airport designator
Station Type Date Time Source
UKOH METAR 2020/05/30 05:00 UTC NOAA

UKOH 300500Z 22004MPS 180V250 9999 BKN030CB 15/13 Q1006 NOSIG


Station Type Date Time Source
UKOH Decoded METAR 2020/05/30 05:00 UTC NOAA

Station name not available
May 30, 2020 - 01:00 AM EDT / 2020.05.30 0500 UTC
Wind: from the SW (220 degrees) at 9 MPH (8 KT) (direction variable):0
Visibility: greater than 7 mile(s):0
Sky conditions: mostly cloudy
Weather: Cumulonimbus clouds observed
Temperature: 59 F (15 C)
Dew Point: 55 F (13 C)
Relative Humidity: 87%
Pressure (altimeter): 29.71 in. Hg (1006 hPa)
ob: UKOH 300500Z 22004MPS 180V250 9999 BKN030CB 15/13 Q1006 NOSIG
cycle: 5

Station Type Date Time Source
UKOH TAF UTC NOAA

Error!

Example: see airport list